Time;durP1;ratioP1;P1;durP2;ratioP2;P2;SDS_P1;SDS_P2;PMS_P1;PMS_P2;Temp;Humidity;BMP_temperature;BMP_pressure;BME280_temperature;BME280_humidity;BME280_pressure;Samples;Min_cycle;Max_cycle;Signal;HPM_P1;HPM_P2
2023/06/30 00:01:48;;;;;;;5.85;1.10;;;14.60;99.90;;;;;;5008504;28;20029;-72
2023/06/30 00:04:22;;;;;;;3.37;0.80;;;14.60;99.90;;;;;;5012539;28;20080;-71
2023/06/30 00:06:51;;;;;;;3.80;0.70;;;14.60;99.90;;;;;;5008659;28;20764;-71
2023/06/30 00:09:20;;;;;;;5.55;0.70;;;14.50;99.90;;;;;;5008668;28;20033;-71
2023/06/30 00:11:48;;;;;;;7.55;0.80;;;14.50;99.90;;;;;;5025709;28;20037;-71
2023/06/30 00:14:13;;;;;;;3.53;0.82;;;14.40;99.90;;;;;;5027263;28;20060;-72
2023/06/30 00:16:39;;;;;;;2.67;0.75;;;14.40;99.90;;;;;;5008772;28;20049;-71
2023/06/30 00:19:04;;;;;;;2.58;0.60;;;14.40;99.90;;;;;;5008377;28;20044;-71
2023/06/30 00:21:30;;;;;;;7.75;0.90;;;14.40;99.90;;;;;;5008180;28;20030;-72
2023/06/30 00:24:01;;;;;;;3.28;0.63;;;14.30;99.90;;;;;;5026867;28;20042;-71
2023/06/30 00:26:28;;;;;;;3.63;0.65;;;14.30;99.90;;;;;;4997544;28;20025;-71
2023/06/30 00:28:54;;;;;;;5.03;1.08;;;14.30;99.90;;;;;;5012724;28;20041;-71
2023/06/30 00:31:20;;;;;;;3.72;1.10;;;14.20;99.90;;;;;;5012099;28;20435;-71
2023/06/30 00:33:45;;;;;;;7.35;1.13;;;14.20;99.90;;;;;;5012364;28;20033;-73
2023/06/30 00:36:11;;;;;;;4.13;0.95;;;14.20;99.90;;;;;;5030074;28;20425;-72
2023/06/30 00:38:37;;;;;;;2.03;0.52;;;14.10;99.90;;;;;;5029834;28;20115;-70
2023/06/30 00:41:02;;;;;;;1.67;0.93;;;14.10;99.90;;;;;;5012357;28;20029;-73
2023/06/30 00:43:28;;;;;;;8.57;0.68;;;14.00;99.90;;;;;;5011916;28;20041;-72
2023/06/30 00:45:53;;;;;;;2.22;0.70;;;14.00;99.90;;;;;;5029757;28;20037;-72
2023/06/30 00:48:19;;;;;;;4.22;1.00;;;14.00;99.90;;;;;;5029711;28;20148;-72
2023/06/30 00:50:45;;;;;;;9.82;0.73;;;14.00;99.90;;;;;;5010225;28;20041;-71
2023/06/30 00:53:12;;;;;;;4.15;0.73;;;14.00;99.90;;;;;;5011216;28;20410;-71
2023/06/30 00:55:40;;;;;;;3.63;0.57;;;13.90;99.90;;;;;;5011621;28;20033;-72
2023/06/30 00:58:05;;;;;;;3.65;0.75;;;13.90;99.90;;;;;;5011796;28;20033;-71
2023/06/30 01:00:31;;;;;;;2.30;1.05;;;13.90;99.90;;;;;;5011641;28;20034;-72
2023/06/30 01:03:29;;;;;;;7.75;0.90;;;13.80;99.90;;;;;;5012418;28;20025;-71
2023/06/30 01:06:00;;;;;;;2.42;1.08;;;13.80;99.90;;;;;;4985610;28;20656;-71
2023/06/30 01:08:34;;;;;;;3.13;0.63;;;13.80;99.90;;;;;;5029652;28;20470;-72
2023/06/30 01:11:01;;;;;;;3.65;0.68;;;13.80;99.90;;;;;;5029827;28;20033;-71
2023/06/30 01:13:28;;;;;;;3.03;0.90;;;13.70;99.90;;;;;;5029431;28;20022;-72
2023/06/30 01:15:56;;;;;;;4.65;0.80;;;13.70;99.90;;;;;;5011810;28;20064;-71
2023/06/30 01:18:22;;;;;;;1.70;0.50;;;13.70;99.90;;;;;;5011444;28;20041;-73
2023/06/30 01:20:49;;;;;;;5.50;1.02;;;13.60;99.90;;;;;;5028853;28;20132;-71
2023/06/30 01:23:27;;;;;;;11.80;1.73;;;13.60;99.90;;;;;;5028898;28;20032;-72
2023/06/30 01:25:53;;;;;;;8.73;1.02;;;13.60;99.90;;;;;;5021932;28;20399;-72
2023/06/30 01:28:19;;;;;;;4.32;1.13;;;13.60;99.90;;;;;;5011385;28;20045;-73
2023/06/30 01:30:44;;;;;;;2.53;1.08;;;13.50;99.90;;;;;;5029283;28;20049;-72
2023/06/30 01:33:10;;;;;;;2.88;0.75;;;13.50;99.90;;;;;;5011196;28;20036;-71
2023/06/30 01:35:36;;;;;;;5.95;0.93;;;13.40;99.90;;;;;;5029140;28;20069;-72
2023/06/30 01:38:02;;;;;;;5.65;1.30;;;13.50;99.90;;;;;;5011880;28;20030;-72
2023/06/30 01:40:28;;;;;;;5.82;0.77;;;13.50;99.90;;;;;;5011496;28;20022;-70
2023/06/30 01:42:57;;;;;;;4.97;0.82;;;13.40;99.90;;;;;;5028746;28;20033;-72
2023/06/30 01:45:27;;;;;;;8.32;0.93;;;13.40;99.90;;;;;;5028854;28;20036;-71
2023/06/30 01:47:54;;;;;;;4.13;0.70;;;13.30;99.90;;;;;;5028551;28;20548;-70
2023/06/30 01:50:20;;;;;;;2.70;0.88;;;13.30;99.90;;;;;;5028605;28;20477;-73
2023/06/30 01:52:46;;;;;;;10.38;1.10;;;13.30;99.90;;;;;;5010471;28;20030;-71
2023/06/30 01:55:11;;;;;;;2.58;1.10;;;13.30;99.90;;;;;;5028703;28;20022;-72
2023/06/30 01:57:37;;;;;;;4.10;0.90;;;13.20;99.90;;;;;;5010934;28;20045;-71
2023/06/30 02:00:05;;;;;;;2.70;1.00;;;13.20;99.90;;;;;;5011117;28;20030;-71
2023/06/30 02:02:31;;;;;;;2.53;0.80;;;13.20;99.90;;;;;;5027665;28;20033;-71
2023/06/30 02:04:56;;;;;;;1.75;0.60;;;13.10;99.90;;;;;;5014290;28;20116;-72
2023/06/30 02:07:23;;;;;;;3.25;0.90;;;13.10;99.90;;;;;;5010740;28;20120;-72
2023/06/30 02:09:49;;;;;;;4.35;0.60;;;13.10;99.90;;;;;;5010911;28;20033;-73
2023/06/30 02:12:15;;;;;;;1.80;0.65;;;13.00;99.90;;;;;;5028482;28;20037;-72
2023/06/30 02:14:40;;;;;;;7.25;1.95;;;13.00;99.90;;;;;;5014253;28;20041;-72
2023/06/30 02:17:10;;;;;;;1.38;0.80;;;13.00;99.90;;;;;;5010798;28;20037;-73
2023/06/30 02:19:35;;;;;;;2.97;0.90;;;13.00;99.90;;;;;;5010494;28;20099;-71
2023/06/30 02:22:01;;;;;;;7.70;1.70;;;13.00;99.90;;;;;;5011168;28;20493;-72
2023/06/30 02:24:27;;;;;;;4.95;0.90;;;13.00;99.90;;;;;;5028219;28;20029;-71
2023/06/30 02:26:52;;;;;;;4.90;1.00;;;13.00;99.90;;;;;;5027751;28;20060;-73
2023/06/30 02:29:20;;;;;;;5.97;1.33;;;12.90;99.90;;;;;;5009783;28;20045;-71
2023/06/30 02:31:46;;;;;;;1.23;0.70;;;12.90;99.90;;;;;;5023788;28;20056;-72
2023/06/30 02:34:12;;;;;;;3.40;0.80;;;12.90;99.90;;;;;;5028116;28;20119;-71
2023/06/30 02:36:37;;;;;;;2.40;0.70;;;12.90;99.90;;;;;;5028806;28;20045;-70
2023/06/30 02:39:03;;;;;;;5.72;1.20;;;12.80;99.90;;;;;;5010672;28;20034;-73
2023/06/30 02:41:28;;;;;;;3.97;1.30;;;12.90;99.90;;;;;;5009566;28;20029;-75
2023/06/30 02:43:54;;;;;;;6.57;1.13;;;12.90;99.90;;;;;;5027273;28;20040;-71
2023/06/30 02:46:19;;;;;;;4.97;0.90;;;12.90;99.90;;;;;;5010277;28;20136;-71
2023/06/30 02:48:45;;;;;;;8.95;0.77;;;12.90;99.90;;;;;;5010657;28;20446;-71
2023/06/30 02:51:10;;;;;;;4.15;0.80;;;12.90;99.90;;;;;;5010159;28;20026;-72
2023/06/30 02:53:36;;;;;;;8.75;1.60;;;12.90;99.90;;;;;;5027841;28;20025;-72
2023/06/30 02:56:02;;;;;;;3.92;1.15;;;12.90;99.90;;;;;;5028879;28;20087;-72
2023/06/30 02:58:27;;;;;;;1.52;0.60;;;12.90;99.90;;;;;;5027213;28;20434;-72
2023/06/30 03:00:55;;;;;;;2.63;0.60;;;12.90;99.90;;;;;;5009787;28;20034;-72
2023/06/30 03:03:20;;;;;;;2.58;0.73;;;12.90;99.90;;;;;;5027288;28;20129;-72
2023/06/30 03:05:46;;;;;;;4.70;0.85;;;12.80;99.90;;;;;;5012514;28;20116;-72
2023/06/30 03:08:11;;;;;;;2.45;0.80;;;12.80;99.90;;;;;;5027420;28;20030;-72
2023/06/30 03:10:37;;;;;;;5.18;1.00;;;12.80;99.90;;;;;;5009050;28;20037;-72
2023/06/30 03:13:03;;;;;;;3.22;1.05;;;12.70;99.90;;;;;;5011524;28;20394;-72
2023/06/30 03:15:28;;;;;;;3.38;0.70;;;12.70;99.90;;;;;;5029400;28;20029;-72
2023/06/30 03:17:55;;;;;;;2.45;0.65;;;12.70;99.90;;;;;;5009474;28;20041;-72
2023/06/30 03:20:21;;;;;;;6.75;1.00;;;12.70;99.90;;;;;;5008719;28;20059;-72
2023/06/30 03:22:46;;;;;;;3.53;0.85;;;12.70;99.90;;;;;;5009328;28;20088;-71
2023/06/30 03:25:12;;;;;;;3.10;0.65;;;12.60;99.90;;;;;;5009270;28;20026;-71
2023/06/30 03:27:37;;;;;;;3.03;0.65;;;12.60;99.90;;;;;;5008885;28;20037;-73
2023/06/30 03:30:04;;;;;;;5.90;1.55;;;12.60;99.90;;;;;;5009683;28;20100;-72
2023/06/30 03:32:31;;;;;;;3.35;1.05;;;12.60;99.90;;;;;;5008430;28;20818;-72
2023/06/30 03:34:56;;;;;;;5.38;0.75;;;12.60;99.90;;;;;;5009520;28;20037;-71
2023/06/30 03:37:22;;;;;;;2.42;1.08;;;12.60;99.90;;;;;;5026721;28;20040;-72
2023/06/30 03:39:47;;;;;;;1.58;0.70;;;12.60;99.90;;;;;;5026230;28;20040;-72
2023/06/30 03:42:13;;;;;;;2.38;0.70;;;12.50;99.90;;;;;;5008731;28;20033;-71
2023/06/30 03:44:39;;;;;;;4.40;1.08;;;12.50;99.90;;;;;;5026984;28;20046;-71
2023/06/30 03:47:05;;;;;;;4.90;1.48;;;12.50;99.90;;;;;;5027095;28;20038;-72
2023/06/30 03:49:30;;;;;;;4.70;1.10;;;12.50;99.90;;;;;;5008926;28;20037;-71
2023/06/30 03:51:56;;;;;;;2.97;0.93;;;12.50;99.90;;;;;;5026670;28;20562;-72
2023/06/30 03:54:21;;;;;;;4.38;1.83;;;12.50;99.90;;;;;;5026979;28;20037;-71
2023/06/30 03:56:47;;;;;;;3.70;0.98;;;12.50;99.90;;;;;;5026911;28;20095;-72
2023/06/30 03:59:13;;;;;;;2.75;0.80;;;12.50;99.90;;;;;;5008535;28;20044;-72
2023/06/30 04:01:40;;;;;;;2.58;1.13;;;12.50;99.90;;;;;;5027336;28;20107;-72
2023/06/30 04:04:06;;;;;;;3.58;0.82;;;12.60;99.90;;;;;;5033181;28;20084;-71
2023/06/30 04:06:33;;;;;;;4.65;0.98;;;12.60;99.90;;;;;;5030504;28;20033;-71
2023/06/30 04:08:59;;;;;;;3.47;0.95;;;12.60;99.90;;;;;;5011845;28;20041;-72
2023/06/30 04:11:25;;;;;;;1.45;0.60;;;12.60;99.90;;;;;;5012484;28;20489;-72
2023/06/30 04:13:51;;;;;;;2.58;1.10;;;12.60;99.90;;;;;;5033507;28;20038;-72
2023/06/30 04:16:17;;;;;;;3.85;0.73;;;12.60;99.90;;;;;;5012485;28;20506;-72
2023/06/30 04:18:43;;;;;;;1.90;0.95;;;12.60;99.90;;;;;;5011567;28;20046;-71
2023/06/30 04:21:09;;;;;;;8.68;1.13;;;12.60;99.90;;;;;;5029961;28;20037;-72
2023/06/30 04:23:35;;;;;;;3.35;0.98;;;12.60;99.90;;;;;;5030327;28;20520;-71
2023/06/30 04:26:01;;;;;;;3.08;0.70;;;12.70;99.90;;;;;;5012964;28;20037;-71
2023/06/30 04:28:27;;;;;;;2.75;0.85;;;12.70;99.90;;;;;;5030182;28;20030;-71
2023/06/30 04:30:52;;;;;;;5.38;1.00;;;12.70;99.90;;;;;;5029804;28;20048;-70
2023/06/30 04:33:18;;;;;;;4.07;1.00;;;12.70;99.90;;;;;;5012567;28;20033;-71
2023/06/30 04:35:43;;;;;;;6.60;1.45;;;12.70;99.90;;;;;;5012476;28;20037;-71
2023/06/30 04:38:09;;;;;;;3.33;1.55;;;12.70;99.90;;;;;;5030378;28;20029;-71
2023/06/30 04:40:35;;;;;;;6.68;1.20;;;12.80;99.90;;;;;;5030225;28;20108;-71
2023/06/30 04:43:02;;;;;;;3.10;1.42;;;12.90;99.90;;;;;;5030308;28;20204;-72
2023/06/30 04:45:27;;;;;;;2.22;0.88;;;12.90;99.90;;;;;;5030276;28;20033;-71
2023/06/30 04:47:53;;;;;;;5.80;1.08;;;12.90;99.90;;;;;;5011861;28;20041;-72
2023/06/30 04:50:19;;;;;;;3.20;0.88;;;12.90;99.90;;;;;;5011903;28;20073;-74
2023/06/30 04:52:44;;;;;;;5.90;1.52;;;13.00;99.90;;;;;;5011668;28;20430;-72
2023/06/30 04:55:10;;;;;;;7.63;1.65;;;13.10;99.90;;;;;;5011818;28;20508;-72
2023/06/30 04:57:35;;;;;;;5.38;1.23;;;13.10;99.90;;;;;;5012062;28;20410;-73
2023/06/30 05:00:02;;;;;;;5.28;1.40;;;13.20;99.90;;;;;;5012577;28;20033;-71
2023/06/30 05:02:27;;;;;;;4.60;1.58;;;13.20;99.90;;;;;;5029631;28;20033;-72
2023/06/30 05:04:53;;;;;;;3.75;1.50;;;13.30;99.90;;;;;;5031331;28;20029;-72
2023/06/30 05:07:19;;;;;;;4.75;1.33;;;13.40;99.90;;;;;;5011624;28;20025;-72
2023/06/30 05:09:46;;;;;;;3.35;1.45;;;13.40;99.90;;;;;;5011823;28;20045;-72
2023/06/30 05:12:12;;;;;;;2.70;1.20;;;13.50;99.90;;;;;;5028820;28;20029;-73
2023/06/30 05:14:38;;;;;;;5.28;2.25;;;13.60;99.90;;;;;;5018271;28;20044;-72
2023/06/30 05:17:04;;;;;;;3.30;1.58;;;13.70;99.90;;;;;;5011810;28;20025;-72
2023/06/30 05:19:29;;;;;;;5.40;1.33;;;13.70;99.90;;;;;;5011058;28;20076;-73
2023/06/30 05:21:55;;;;;;;5.82;1.55;;;13.80;99.90;;;;;;5029177;28;20033;-73
2023/06/30 05:24:20;;;;;;;3.90;1.50;;;13.90;99.90;;;;;;5011422;28;20030;-73
2023/06/30 05:26:46;;;;;;;5.05;1.60;;;14.00;99.90;;;;;;5011296;28;20428;-74
2023/06/30 05:29:11;;;;;;;5.38;1.23;;;14.00;99.90;;;;;;5011311;28;20061;-71
2023/06/30 05:31:37;;;;;;;5.93;1.65;;;14.10;99.90;;;;;;5010862;28;20049;-71
2023/06/30 05:34:03;;;;;;;5.57;1.50;;;14.20;99.90;;;;;;5011788;28;20490;-71
2023/06/30 05:36:29;;;;;;;3.25;1.25;;;14.30;99.90;;;;;;5011019;28;20045;-73
2023/06/30 05:38:56;;;;;;;5.70;1.08;;;14.40;99.90;;;;;;5011218;28;20335;-71
2023/06/30 05:41:21;;;;;;;5.40;1.60;;;14.50;99.90;;;;;;5010759;28;20059;-72
2023/06/30 05:43:47;;;;;;;4.25;1.08;;;14.60;99.90;;;;;;5028970;28;20030;-71
2023/06/30 05:46:12;;;;;;;2.67;1.15;;;14.80;99.90;;;;;;5011306;28;20037;-73
2023/06/30 05:48:38;;;;;;;7.55;1.08;;;14.90;99.90;;;;;;5028604;28;20034;-72
2023/06/30 05:51:03;;;;;;;3.53;1.23;;;15.10;99.90;;;;;;5028849;28;20502;-73
2023/06/30 05:53:29;;;;;;;2.67;0.93;;;15.30;99.90;;;;;;5027844;28;20093;-78
2023/06/30 05:55:55;;;;;;;4.70;1.00;;;15.60;99.90;;;;;;5011049;28;20099;-72
2023/06/30 05:58:23;;;;;;;3.70;0.90;;;16.10;99.90;;;;;;5010384;28;20030;-73
2023/06/30 06:00:49;;;;;;;6.47;1.60;;;16.60;99.90;;;;;;5010387;28;20033;-73
2023/06/30 06:03:14;;;;;;;4.53;1.10;;;17.10;99.90;;;;;;5009911;28;20120;-72
2023/06/30 06:05:40;;;;;;;4.40;0.60;;;17.50;99.90;;;;;;5015579;28;20505;-72
2023/06/30 06:08:05;;;;;;;9.60;0.98;;;17.90;99.90;;;;;;5028529;28;20040;-74
2023/06/30 06:10:31;;;;;;;3.60;0.82;;;18.10;99.90;;;;;;5010508;28;20140;-73
2023/06/30 06:12:56;;;;;;;3.15;0.70;;;18.30;99.90;;;;;;5027891;28;20494;-73
2023/06/30 06:15:22;;;;;;;3.83;0.85;;;18.50;99.90;;;;;;5011792;28;20045;-73
2023/06/30 06:17:47;;;;;;;5.95;0.50;;;18.60;99.90;;;;;;5010296;28;20128;-72
2023/06/30 06:20:13;;;;;;;7.32;0.77;;;18.70;99.90;;;;;;5027765;28;20034;-73
2023/06/30 06:22:39;;;;;;;4.47;0.88;;;18.70;99.90;;;;;;5009743;28;20045;-73
2023/06/30 06:25:05;;;;;;;3.97;1.08;;;18.70;99.90;;;;;;5027763;28;20040;-73
2023/06/30 06:27:34;;;;;;;5.63;1.08;;;18.70;99.90;;;;;;5006009;28;20038;-73
2023/06/30 06:30:00;;;;;;;2.97;1.10;;;18.80;99.90;;;;;;5028427;28;20060;-73
2023/06/30 06:32:26;;;;;;;8.20;0.68;;;18.80;99.90;;;;;;5027610;28;20497;-73
2023/06/30 06:34:51;;;;;;;3.42;0.77;;;18.90;99.90;;;;;;5009416;28;20102;-73
2023/06/30 06:37:17;;;;;;;2.55;0.47;;;19.00;99.90;;;;;;5009734;28;20104;-73
2023/06/30 06:39:42;;;;;;;4.70;0.82;;;19.00;99.90;;;;;;5009693;28;20044;-74
2023/06/30 06:42:08;;;;;;;2.20;0.50;;;19.20;99.90;;;;;;5027189;28;20082;-75
2023/06/30 06:44:33;;;;;;;1.83;0.40;;;19.30;99.90;;;;;;5009066;28;20064;-73
2023/06/30 06:47:36;;;;;;;2.90;0.50;;;19.50;99.90;;;;;;5028075;28;20120;-74
2023/06/30 06:50:03;;;;;;;4.20;0.40;;;19.70;99.90;;;;;;5005403;28;20042;-74
2023/06/30 06:52:28;;;;;;;3.50;0.40;;;19.90;99.90;;;;;;5027143;28;20036;-73
2023/06/30 06:54:54;;;;;;;4.32;0.70;;;20.20;99.90;;;;;;5019150;28;20034;-73
2023/06/30 06:57:19;;;;;;;2.72;0.52;;;20.40;99.90;;;;;;5026216;28;20045;-73
2023/06/30 06:59:45;;;;;;;1.63;0.50;;;20.50;99.90;;;;;;5027096;28;20548;-73
2023/06/30 07:02:11;;;;;;;5.15;1.00;;;20.70;99.90;;;;;;5008498;28;20109;-73
2023/06/30 07:04:36;;;;;;;3.47;0.65;;;20.90;99.90;;;;;;5008577;28;20045;-73
2023/06/30 07:07:02;;;;;;;1.63;0.52;;;21.10;99.90;;;;;;5027397;28;20030;-71
2023/06/30 07:09:27;;;;;;;3.05;0.73;;;21.60;99.90;;;;;;5026266;28;20030;-72
2023/06/30 07:11:53;;;;;;;3.33;0.40;;;21.90;99.90;;;;;;5024840;28;20390;-74
2023/06/30 07:14:20;;;;;;;1.13;0.40;;;22.60;99.90;;;;;;5026327;28;20317;-73
2023/06/30 07:16:45;;;;;;;2.30;0.65;;;23.30;99.90;;;;;;5022662;28;20047;-73
2023/06/30 07:19:11;;;;;;;2.83;0.57;;;24.00;99.20;;;;;;5009254;28;20030;-73
2023/06/30 07:21:36;;;;;;;4.65;0.93;;;24.90;98.60;;;;;;5025538;28;20057;-72
2023/06/30 07:24:02;;;;;;;4.97;0.90;;;25.70;96.90;;;;;;5007951;28;20041;-74
2023/06/30 07:26:31;;;;;;;3.80;0.88;;;26.50;95.70;;;;;;5010418;28;20032;-75
2023/06/30 07:28:57;;;;;;;2.72;1.17;;;27.50;94.90;;;;;;5026162;28;20127;-72
2023/06/30 07:31:22;;;;;;;6.80;1.70;;;28.50;93.50;;;;;;5011206;28;20554;-74
2023/06/30 07:33:48;;;;;;;2.60;1.35;;;29.30;92.30;;;;;;5025221;28;20121;-73
2023/06/30 07:36:13;;;;;;;3.35;1.30;;;30.00;92.00;;;;;;5025491;28;20116;-74
2023/06/30 07:38:40;;;;;;;6.15;1.27;;;30.60;89.00;;;;;;5026216;28;20133;-74
2023/06/30 07:41:05;;;;;;;2.55;0.98;;;31.10;85.50;;;;;;5026169;28;20494;-76
2023/06/30 07:43:31;;;;;;;4.80;1.63;;;31.10;85.10;;;;;;5026336;28;20057;-74
2023/06/30 07:45:56;;;;;;;4.72;1.67;;;31.10;84.20;;;;;;5028374;28;20762;-74
2023/06/30 07:48:22;;;;;;;8.82;1.83;;;31.50;84.50;;;;;;5027300;28;20033;-74
2023/06/30 07:50:48;;;;;;;3.60;1.05;;;31.80;84.00;;;;;;5027140;28;20761;-73
2023/06/30 07:53:13;;;;;;;3.33;1.05;;;32.10;82.20;;;;;;5027244;28;20037;-75
2023/06/30 07:55:39;;;;;;;4.28;1.48;;;32.00;81.70;;;;;;5026361;28;20041;-75
2023/06/30 07:58:05;;;;;;;4.55;1.27;;;31.40;82.10;;;;;;5026799;28;20038;-74
2023/06/30 08:00:30;;;;;;;3.72;1.35;;;31.40;81.20;;;;;;5025583;28;20720;-74
2023/06/30 08:02:56;;;;;;;4.47;1.20;;;30.70;79.60;;;;;;5026304;28;20036;-74
2023/06/30 08:05:22;;;;;;;5.55;1.63;;;29.10;81.60;;;;;;5026572;28;20486;-74
2023/06/30 08:07:47;;;;;;;4.30;1.17;;;28.10;84.50;;;;;;5025803;28;20112;-74
2023/06/30 08:10:14;;;;;;;4.07;0.90;;;27.40;84.80;;;;;;5025714;28;20047;-74
2023/06/30 08:12:39;;;;;;;4.70;0.75;;;27.10;85.40;;;;;;5007615;28;20494;-73
2023/06/30 08:15:05;;;;;;;4.68;1.10;;;27.00;84.80;;;;;;5026336;28;20041;-74
2023/06/30 08:17:31;;;;;;;1.98;0.70;;;26.70;85.00;;;;;;5007692;28;20037;-72
2023/06/30 08:19:56;;;;;;;1.65;0.70;;;26.00;88.00;;;;;;5025967;28;20045;-73
2023/06/30 08:22:22;;;;;;;4.10;0.90;;;25.30;88.20;;;;;;5025840;28;20033;-73
2023/06/30 08:24:48;;;;;;;2.78;0.70;;;24.80;88.70;;;;;;5025591;28;20049;-73
2023/06/30 08:27:15;;;;;;;1.75;0.70;;;24.60;88.20;;;;;;5025741;28;20070;-73
2023/06/30 08:29:40;;;;;;;4.00;0.60;;;24.30;90.00;;;;;;5025593;28;20823;-73
2023/06/30 08:32:07;;;;;;;3.78;0.60;;;23.90;90.80;;;;;;5008418;28;20111;-72
2023/06/30 08:34:32;;;;;;;5.50;0.80;;;23.70;91.10;;;;;;5007801;28;20167;-74
2023/06/30 08:36:58;;;;;;;6.60;0.77;;;23.70;90.80;;;;;;5007952;28;20121;-73
2023/06/30 08:39:27;;;;;;;1.67;0.43;;;23.80;90.80;;;;;;5006124;28;20037;-74
2023/06/30 08:41:54;;;;;;;5.22;0.50;;;23.70;90.30;;;;;;5024839;28;20045;-72
2023/06/30 08:44:23;;;;;;;1.73;0.40;;;23.40;90.60;;;;;;5025586;28;20038;-72
2023/06/30 08:46:54;;;;;;;1.95;0.45;;;23.30;90.70;;;;;;5025020;28;20026;-74
2023/06/30 08:49:24;;;;;;;3.25;0.40;;;23.40;90.90;;;;;;5029362;28;20116;-74
2023/06/30 08:51:52;;;;;;;;;;;23.30;89.30;;;;;;5031118;28;20238;-71
2023/06/30 08:54:18;;;;;;;2.60;0.52;;;23.30;90.40;;;;;;5011201;28;19920;-73
2023/06/30 08:56:44;;;;;;;3.90;0.68;;;23.40;90.30;;;;;;5027541;28;20045;-73
2023/06/30 08:59:09;;;;;;;4.25;0.57;;;23.70;90.20;;;;;;5010329;28;20108;-73
2023/06/30 09:01:37;;;;;;;3.17;0.55;;;23.90;90.20;;;;;;5029436;28;20030;-75
2023/06/30 09:04:05;;;;;;;1.60;0.80;;;24.10;90.40;;;;;;5029619;28;20117;-75
2023/06/30 09:06:34;;;;;;;1.80;0.35;;;24.20;90.10;;;;;;5011024;28;20171;-74
2023/06/30 09:09:05;;;;;;;2.50;0.40;;;24.30;90.90;;;;;;5029744;28;20479;-72
2023/06/30 09:11:33;;;;;;;3.60;0.68;;;24.30;89.10;;;;;;5010994;28;20044;-73
2023/06/30 09:14:03;;;;;;;3.28;0.38;;;24.60;88.40;;;;;;5033907;28;20041;-73
2023/06/30 09:16:30;;;;;;;4.43;0.52;;;24.60;89.60;;;;;;5011321;28;20044;-73
2023/06/30 09:18:56;;;;;;;2.97;0.40;;;24.70;86.80;;;;;;5011491;28;20026;-74
2023/06/30 09:21:22;;;;;;;5.07;0.40;;;24.60;87.50;;;;;;5029060;28;20037;-73
2023/06/30 09:23:48;;;;;;;2.05;0.30;;;24.50;87.10;;;;;;5028337;28;20037;-74
2023/06/30 09:26:16;;;;;;;2.80;0.68;;;24.60;88.00;;;;;;5028971;28;20091;-73
2023/06/30 09:28:45;;;;;;;1.65;0.35;;;24.30;88.00;;;;;;5010836;28;20033;-73
2023/06/30 09:31:11;;;;;;;5.75;0.73;;;24.20;88.70;;;;;;5028814;28;20037;-74
2023/06/30 09:33:42;;;;;;;3.03;0.60;;;23.90;88.30;;;;;;5028037;28;20044;-73
2023/06/30 09:36:07;;;;;;;3.20;0.60;;;23.60;89.50;;;;;;5028510;28;20041;-73
2023/06/30 09:38:34;;;;;;;4.05;0.50;;;23.40;90.50;;;;;;5009893;28;20343;-74
2023/06/30 09:41:04;;;;;;;1.75;0.60;;;23.30;90.70;;;;;;5010768;28;20034;-72
2023/06/30 09:43:30;;;;;;;;;;;23.40;90.90;;;;;;5010550;28;20048;-73
2023/06/30 09:46:01;;;;;;;2.92;0.60;;;23.40;90.80;;;;;;5011019;28;19917;-72
2023/06/30 09:48:39;;;;;;;9.98;1.00;;;23.40;90.20;;;;;;5027161;28;20065;-73
2023/06/30 09:51:09;;;;;;;5.38;0.88;;;23.40;90.60;;;;;;5028138;28;20508;-74
2023/06/30 09:53:40;;;;;;;3.45;0.80;;;23.30;90.40;;;;;;5026038;28;20084;-75
2023/06/30 09:56:08;;;;;;;2.08;0.30;;;23.10;90.50;;;;;;5015142;28;20045;-73
2023/06/30 09:58:35;;;;;;;2.33;0.57;;;23.00;91.10;;;;;;5024221;28;20037;-72
2023/06/30 10:01:01;;;;;;;1.38;0.52;;;23.10;91.10;;;;;;5028339;28;20076;-73
2023/06/30 10:03:27;;;;;;;2.03;0.65;;;23.30;92.00;;;;;;5016728;28;20493;-73
2023/06/30 10:05:53;;;;;;;1.60;0.47;;;23.50;91.30;;;;;;5015703;28;20021;-74
2023/06/30 10:08:21;;;;;;;5.40;0.88;;;23.70;90.80;;;;;;5010855;28;20133;-75
2023/06/30 10:10:51;;;;;;;1.23;0.40;;;23.60;91.50;;;;;;5010854;28;20033;-73
2023/06/30 10:13:17;;;;;;;8.38;0.75;;;23.50;91.20;;;;;;5027492;28;20017;-73
2023/06/30 10:15:43;;;;;;;1.38;0.60;;;23.40;91.20;;;;;;5010135;28;20116;-74
2023/06/30 10:18:10;;;;;;;1.77;0.88;;;23.40;91.70;;;;;;5027721;28;20025;-73
2023/06/30 10:20:36;;;;;;;1.63;0.73;;;23.30;91.20;;;;;;5010277;28;20534;-72
2023/06/30 10:23:04;;;;;;;2.30;0.32;;;23.20;91.40;;;;;;5027977;28;20112;-75
2023/06/30 10:25:33;;;;;;;1.73;0.60;;;23.00;91.20;;;;;;5007709;28;20057;-71
2023/06/30 10:27:59;;;;;;;2.05;0.65;;;22.90;91.90;;;;;;5023859;28;20068;-72
2023/06/30 10:30:28;;;;;;;2.95;0.80;;;22.70;92.30;;;;;;5026567;28;20572;-71
2023/06/30 10:32:55;;;;;;;5.72;1.10;;;22.80;92.10;;;;;;5009338;28;20037;-73
2023/06/30 10:35:21;;;;;;;1.73;0.60;;;23.00;91.60;;;;;;5001366;28;20128;-71
2023/06/30 10:37:47;;;;;;;4.35;0.68;;;23.30;91.60;;;;;;5007797;28;20120;-71
2023/06/30 10:40:25;;;;;;;3.17;0.50;;;23.40;91.30;;;;;;5026837;28;20037;-72
2023/06/30 10:42:53;;;;;;;1.90;0.45;;;23.40;91.60;;;;;;5006134;28;20346;-71
2023/06/30 10:45:20;;;;;;;2.65;0.70;;;23.30;91.50;;;;;;5027052;28;20030;-71
2023/06/30 10:47:49;;;;;;;6.50;0.57;;;23.30;91.70;;;;;;5027069;28;20490;-71
2023/06/30 10:50:15;;;;;;;2.33;0.55;;;23.40;91.40;;;;;;5008809;28;20056;-71
2023/06/30 10:52:49;;;;;;;9.35;0.70;;;23.70;91.50;;;;;;5026978;28;20044;-71
2023/06/30 10:55:15;;;;;;;0.93;0.47;;;24.10;90.90;;;;;;5009294;28;20037;-71
2023/06/30 10:57:40;;;;;;;2.60;0.90;;;24.30;89.50;;;;;;5007809;28;20107;-72
2023/06/30 11:00:10;;;;;;;1.75;0.88;;;24.30;89.20;;;;;;5007123;28;20037;-74
2023/06/30 11:02:49;;;;;;;0.98;0.43;;;24.40;90.20;;;;;;5007546;28;20042;-72
2023/06/30 11:05:21;;;;;;;1.35;0.45;;;24.50;89.60;;;;;;5025025;28;20421;-72
2023/06/30 11:07:49;;;;;;;10.25;0.90;;;24.70;89.30;;;;;;5019471;28;20033;-71
2023/06/30 11:10:44;;;;;;;3.30;0.68;;;24.70;88.90;;;;;;5025904;28;20080;-71
2023/06/30 11:13:10;;;;;;;2.25;0.70;;;24.60;88.70;;;;;;5008394;28;20096;-72
2023/06/30 11:15:43;;;;;;;3.20;0.82;;;24.80;88.90;;;;;;5008190;28;20041;-72
2023/06/30 11:18:13;;;;;;;1.52;0.50;;;24.60;89.70;;;;;;5010525;28;20124;-72
2023/06/30 11:20:56;;;;;;;3.58;0.60;;;24.60;88.60;;;;;;5028367;28;20041;-71
2023/06/30 11:23:22;;;;;;;7.50;0.52;;;24.40;88.70;;;;;;5005161;28;20425;-72
2023/06/30 11:25:48;;;;;;;1.65;0.60;;;24.40;89.10;;;;;;5007352;28;20034;-74
2023/06/30 11:28:13;;;;;;;2.70;0.40;;;24.60;90.20;;;;;;5001884;28;20532;-72
2023/06/30 11:30:40;;;;;;;2.92;0.88;;;24.70;87.90;;;;;;5024758;28;20120;-71
2023/06/30 11:33:07;;;;;;;1.13;0.50;;;24.80;88.10;;;;;;5025962;28;20417;-73
2023/06/30 11:35:34;;;;;;;2.47;0.30;;;25.00;88.10;;;;;;5025283;28;20563;-73
2023/06/30 11:38:00;;;;;;;2.78;0.80;;;25.00;86.60;;;;;;5009501;28;20120;-72
2023/06/30 11:40:27;;;;;;;3.45;0.82;;;25.00;86.70;;;;;;5008969;28;20559;-72
2023/06/30 11:42:53;;;;;;;2.80;1.02;;;25.00;87.90;;;;;;5008670;28;20107;-73
2023/06/30 11:45:27;;;;;;;2.08;0.82;;;25.10;87.20;;;;;;5026970;28;20056;-73
2023/06/30 11:47:54;;;;;;;0.68;0.40;;;25.00;88.70;;;;;;5009038;28;20110;-72
2023/06/30 11:50:20;;;;;;;7.45;0.73;;;25.00;89.00;;;;;;5009282;28;20033;-72
2023/06/30 11:52:51;;;;;;;4.32;0.60;;;24.80;87.60;;;;;;5026566;28;20068;-71
2023/06/30 11:55:17;;;;;;;1.05;0.40;;;24.70;86.90;;;;;;5023897;28;20030;-71
2023/06/30 11:57:46;;;;;;;3.67;0.80;;;24.40;88.70;;;;;;5027426;28;20041;-73
2023/06/30 12:00:17;;;;;;;1.40;0.33;;;24.30;89.80;;;;;;5027180;28;20124;-73
2023/06/30 12:02:45;;;;;;;3.50;0.80;;;24.40;90.20;;;;;;5005188;28;20284;-71
2023/06/30 12:05:21;;;;;;;5.35;0.88;;;24.50;88.80;;;;;;5011671;28;20032;-72
2023/06/30 12:07:48;;;;;;;4.28;0.50;;;24.50;89.20;;;;;;5015285;28;20042;-72
2023/06/30 12:10:14;;;;;;;2.90;1.08;;;24.60;88.90;;;;;;5009041;28;20043;-70
2023/06/30 12:12:41;;;;;;;1.73;0.52;;;24.50;87.50;;;;;;5008757;28;20448;-72
2023/06/30 12:15:12;;;;;;;4.43;0.88;;;24.60;88.30;;;;;;5008840;28;20079;-75
2023/06/30 12:17:44;;;;;;;1.33;0.73;;;24.50;88.00;;;;;;5026825;28;20044;-72
2023/06/30 12:20:11;;;;;;;2.33;0.60;;;24.50;88.20;;;;;;5026568;28;20086;-72
2023/06/30 12:22:41;;;;;;;4.63;0.95;;;24.30;89.30;;;;;;5027165;28;20505;-74
2023/06/30 12:25:11;;;;;;;0.52;0.28;;;24.30;88.20;;;;;;5030658;28;20513;-73
2023/06/30 12:27:43;;;;;;;2.90;0.68;;;24.30;87.00;;;;;;5012236;28;20061;-71
2023/06/30 12:30:16;;;;;;;3.33;0.60;;;24.40;88.60;;;;;;5012503;28;20320;-72
2023/06/30 12:32:43;;;;;;;3.00;0.30;;;24.50;89.50;;;;;;5029764;28;20068;-72
2023/06/30 12:35:09;;;;;;;4.43;0.70;;;24.60;88.10;;;;;;5030308;28;20408;-72
2023/06/30 12:37:35;;;;;;;5.60;0.90;;;24.70;88.40;;;;;;5030129;28;20067;-70
2023/06/30 12:40:01;;;;;;;2.35;0.52;;;24.80;87.90;;;;;;5012873;28;20838;-70
2023/06/30 12:42:29;;;;;;;1.80;0.43;;;24.90;88.00;;;;;;5012075;28;20493;-71
2023/06/30 12:44:55;;;;;;;4.25;0.55;;;25.00;85.70;;;;;;5030332;28;20029;-71
2023/06/30 12:47:21;;;;;;;1.83;0.40;;;25.20;86.60;;;;;;5030071;28;20101;-72